الصفحة الرئيسية
METAR-TAF:

METAR-TAF

مطار :

إري, كولورادو, الولايات المتحدة

دائرة عرض: 40-00-37N, خط طول: 105-02-53W, ارتفاع: 1564 متر

مراقبة الطقس الحالي

تاريخ ووقت الإصدار 7 دقيقة قبل الساعة 16:00UTC
ريح 3 عقدة من الجنوب
درجة الحرارة 7°درجة مئوية
الرطوبة 61%
ضغط 1028 hPa
الرؤية: 16.1 كم
سماء صافية

METAR: KEIK 251600Z AUTO 17003KT 10SM CLR 07/00 A3037 RMK AO2 T00660001

زمن: 10:07 (16:07 UTC)


TAF: مفقودة

أرصاد الطقس والتوقعات من أكثر من 4000 مطار (تقارير الطقس للمطار METAR والتنبؤ بالطقس بالمطارTAF).

المحطات المتاحة هي النقط الصفراء والحمراء على الخريطة.

حرك المؤشر فوق النقطة لمعرفة اسم المحطة.

ثم انقر لمعرفة أرصاد وتوقعات الطقس.

لتغيير الخارطة: اضغط على الأزرار الخضراء مع رمز الصليب الأسود للتكبير. على الزر الأخضر مع شرطة للتصغير، أو على الأسهم الخضراء للخرائط المجاورة.


METAR-TAF: